createdAt,value
2023-01-29T00:01:38.572Z,-2.26
2023-01-29T00:04:05.578Z,-2.24
2023-01-29T00:06:32.713Z,-2.23
2023-01-29T00:09:01.381Z,-2.21
2023-01-29T00:11:31.517Z,-2.20
2023-01-29T00:13:59.735Z,-2.18
2023-01-29T00:16:28.277Z,-2.17
2023-01-29T00:18:56.569Z,-2.16
2023-01-29T00:21:25.114Z,-2.15
2023-01-29T00:23:55.547Z,-2.14
2023-01-29T00:26:24.783Z,-2.12
2023-01-29T00:28:53.659Z,-2.11
2023-01-29T00:31:24.220Z,-2.09
2023-01-29T00:33:52.870Z,-2.09
2023-01-29T00:36:21.766Z,-2.08
2023-01-29T00:38:58.971Z,-2.08
2023-01-29T00:41:47.157Z,-2.07
2023-01-29T00:44:37.087Z,-2.06
2023-01-29T00:47:25.604Z,-2.05
2023-01-29T00:49:54.011Z,-2.05
2023-01-29T00:52:26.483Z,-2.05
2023-01-29T00:54:56.848Z,-2.05
2023-01-29T00:57:27.070Z,-2.05
2023-01-29T00:59:55.754Z,-2.05
2023-01-29T01:02:43.129Z,-2.05
2023-01-29T01:05:18.402Z,-2.06
2023-01-29T01:07:53.531Z,-2.07
2023-01-29T01:10:33.072Z,-2.07
2023-01-29T01:13:04.458Z,-2.08
2023-01-29T01:15:40.235Z,-2.08
2023-01-29T01:18:08.709Z,-2.08
2023-01-29T01:20:37.499Z,-2.07
2023-01-29T01:23:06.504Z,-2.08
2023-01-29T01:25:34.721Z,-2.08
2023-01-29T01:28:03.091Z,-2.09
2023-01-29T01:30:33.319Z,-2.08
2023-01-29T01:33:02.457Z,-2.08
2023-01-29T01:35:32.181Z,-2.08
2023-01-29T01:38:01.532Z,-2.08
2023-01-29T01:40:30.222Z,-2.08
2023-01-29T01:42:59.816Z,-2.09
2023-01-29T01:45:34.496Z,-2.10
2023-01-29T01:48:35.319Z,-2.11
2023-01-29T01:51:04.908Z,-2.11
2023-01-29T01:53:42.077Z,-2.11
2023-01-29T01:56:14.091Z,-2.13
2023-01-29T01:59:02.885Z,-2.15
2023-01-29T02:01:32.192Z,-2.16
2023-01-29T02:04:28.547Z,-2.18
2023-01-29T02:07:15.634Z,-2.19
2023-01-29T02:10:10.791Z,-2.20
2023-01-29T02:12:40.392Z,-2.23
2023-01-29T02:15:09.989Z,-2.24
2023-01-29T02:17:39.150Z,-2.26
2023-01-29T02:27:48.921Z,-2.26
2023-01-29T02:30:34.030Z,-2.30
2023-01-29T02:33:09.663Z,-2.32
2023-01-29T02:35:47.020Z,-2.33
2023-01-29T02:38:20.869Z,-2.34
2023-01-29T02:40:52.276Z,-2.35
2023-01-29T02:43:42.967Z,-2.36
2023-01-29T02:46:19.655Z,-2.37
2023-01-29T02:49:14.206Z,-2.38
2023-01-29T02:51:50.401Z,-2.39
2023-01-29T02:54:25.315Z,-2.40
2023-01-29T02:56:59.240Z,-2.40
2023-01-29T02:59:42.717Z,-2.41
2023-01-29T03:02:17.708Z,-2.41
2023-01-29T03:04:52.153Z,-2.42
2023-01-29T03:07:42.869Z,-2.44
2023-01-29T03:10:28.502Z,-2.44
2023-01-29T03:13:15.048Z,-2.46
2023-01-29T03:15:48.641Z,-2.48
2023-01-29T03:18:59.026Z,-2.47
2023-01-29T03:21:59.872Z,-2.49
2023-01-29T03:25:03.624Z,-2.49
2023-01-29T03:28:17.162Z,-2.49
2023-01-29T03:31:13.606Z,-2.48
2023-01-29T03:34:08.591Z,-2.48
2023-01-29T03:36:45.476Z,-2.48
2023-01-29T03:39:14.177Z,-2.47
2023-01-29T03:41:47.943Z,-2.47
2023-01-29T03:44:20.633Z,-2.46
2023-01-29T03:47:00.878Z,-2.45
2023-01-29T03:49:54.390Z,-2.43
2023-01-29T03:52:56.135Z,-2.43
2023-01-29T03:55:46.457Z,-2.43
2023-01-29T03:58:37.911Z,-2.43
2023-01-29T04:01:19.882Z,-2.42
2023-01-29T04:04:08.406Z,-2.42
2023-01-29T04:06:38.575Z,-2.41
2023-01-29T04:09:24.022Z,-2.41
2023-01-29T04:12:00.329Z,-2.41
2023-01-29T04:14:28.805Z,-2.40
2023-01-29T04:16:58.112Z,-2.39
2023-01-29T07:32:35.379Z,-3.04
2023-01-29T07:35:02.372Z,-2.95
2023-01-29T07:37:29.721Z,-2.87
2023-01-29T07:39:56.721Z,-2.80
2023-01-29T07:42:24.206Z,-2.74
2023-01-29T07:44:51.107Z,-2.69
2023-01-29T07:47:18.001Z,-2.65
2023-01-29T07:49:44.859Z,-2.58
2023-01-29T07:52:11.757Z,-2.50
2023-01-29T07:54:38.674Z,-2.40
2023-01-29T07:57:05.588Z,-2.32
2023-01-29T07:59:32.454Z,-2.26
2023-01-29T08:01:59.330Z,-2.23
2023-01-29T08:04:28.287Z,-2.22
2023-01-29T08:06:55.211Z,-2.23
2023-01-29T08:09:22.179Z,-2.24
2023-01-29T08:11:51.969Z,-2.25
2023-01-29T08:14:19.228Z,-2.23
2023-01-29T08:16:46.192Z,-2.19
2023-01-29T08:19:13.205Z,-2.14
2023-01-29T08:21:40.023Z,-2.10
2023-01-29T08:24:07.110Z,-2.10
2023-01-29T08:26:34.592Z,-2.07
2023-01-29T08:29:01.736Z,-2.04
2023-01-29T08:31:28.880Z,-2.06
2023-01-29T08:33:58.366Z,-2.08
2023-01-29T08:36:25.357Z,-2.11
2023-01-29T08:38:52.218Z,-2.13
2023-01-29T08:41:22.366Z,-2.13
2023-01-29T08:43:49.300Z,-2.15
2023-01-29T08:46:16.347Z,-2.15
2023-01-29T08:48:43.909Z,-2.11
2023-01-29T08:51:10.918Z,-2.10
2023-01-29T08:53:38.295Z,-2.10
2023-01-29T08:56:05.572Z,-2.10
2023-01-29T08:58:32.897Z,-2.10
2023-01-29T09:01:10.078Z,-2.10
2023-01-29T09:03:40.456Z,-2.08
2023-01-29T09:06:09.260Z,-2.07
2023-01-29T09:08:36.146Z,-2.05
2023-01-29T09:11:03.275Z,-2.02
2023-01-29T09:13:30.184Z,-1.98
2023-01-29T09:16:00.958Z,-1.96
2023-01-29T09:18:28.796Z,-1.99
2023-01-29T09:20:55.932Z,-2.00
2023-01-29T09:23:23.522Z,-2.03
2023-01-29T09:25:50.517Z,-2.06
2023-01-29T09:28:17.466Z,-2.08
2023-01-29T09:30:45.043Z,-2.05
2023-01-29T09:33:11.980Z,-2.00
2023-01-29T09:35:45.265Z,-1.99
2023-01-29T09:38:12.389Z,-2.03
2023-01-29T09:41:10.370Z,-2.04
2023-01-29T09:43:56.052Z,-2.04
2023-01-29T09:46:41.641Z,-2.00
2023-01-29T09:49:11.736Z,-1.93
2023-01-29T09:51:44.264Z,-1.87
2023-01-29T09:54:17.282Z,-1.85
2023-01-29T09:56:45.228Z,-1.81
2023-01-29T09:59:13.138Z,-1.78
2023-01-29T10:01:49.389Z,-1.81
2023-01-29T10:04:43.135Z,-1.84
2023-01-29T10:07:15.671Z,-1.86
2023-01-29T10:10:00.958Z,-1.85
2023-01-29T10:12:46.695Z,-1.85
2023-01-29T10:15:20.016Z,-1.86
2023-01-29T10:18:05.857Z,-1.85
2023-01-29T10:20:52.078Z,-1.83
2023-01-29T10:23:33.495Z,-1.76
2023-01-29T10:26:02.273Z,-1.72
2023-01-29T10:28:42.972Z,-1.70
2023-01-29T10:31:15.001Z,-1.63
2023-01-29T10:34:03.517Z,-1.60
2023-01-29T10:36:43.181Z,-1.58
2023-01-29T10:39:21.152Z,-1.58
2023-01-29T10:41:54.291Z,-1.58
2023-01-29T10:44:40.439Z,-1.60
2023-01-29T10:47:16.095Z,-1.59
2023-01-29T10:50:05.205Z,-1.60
2023-01-29T10:52:43.429Z,-1.64
2023-01-29T10:55:22.872Z,-1.59
2023-01-29T10:58:02.934Z,-1.54
2023-01-29T11:00:39.812Z,-1.48
2023-01-29T11:03:27.046Z,-1.46
2023-01-29T11:06:11.219Z,-1.41
2023-01-29T11:08:41.844Z,-1.40
2023-01-29T11:11:16.587Z,-1.39
2023-01-29T11:14:08.515Z,-1.34
2023-01-29T11:16:45.292Z,-1.22
2023-01-29T11:19:13.264Z,-1.13
2023-01-29T11:22:00.741Z,-1.09
2023-01-29T11:24:28.853Z,-1.18
2023-01-29T11:26:57.772Z,-1.26
2023-01-29T11:29:43.792Z,-1.32
2023-01-29T11:32:34.988Z,-1.33
2023-01-29T11:35:02.452Z,-1.31
2023-01-29T11:37:35.038Z,-1.29
2023-01-29T11:40:07.407Z,-1.29
2023-01-29T11:42:34.500Z,-1.30
2023-01-29T11:45:01.472Z,-1.29
2023-01-29T11:47:29.371Z,-1.29
2023-01-29T11:49:57.766Z,-1.33
2023-01-29T11:52:36.039Z,-1.33
2023-01-29T11:55:23.848Z,-1.36
2023-01-29T11:57:57.253Z,-1.37
2023-01-29T12:00:34.874Z,-1.42
2023-01-29T12:03:17.154Z,-1.47
2023-01-29T12:05:57.024Z,-1.53
2023-01-29T12:08:24.005Z,-1.58
2023-01-29T12:10:51.315Z,-1.62
2023-01-29T12:13:25.676Z,-1.65
2023-01-29T12:16:35.805Z,-1.66
2023-01-29T12:19:11.585Z,-1.66
2023-01-29T12:21:47.558Z,-1.67
2023-01-29T12:24:42.732Z,-1.69
2023-01-29T12:27:36.118Z,-1.70
2023-01-29T12:30:28.328Z,-1.72
2023-01-29T12:33:05.763Z,-1.75
2023-01-29T12:35:38.244Z,-1.79
2023-01-29T12:38:20.251Z,-1.84
2023-01-29T12:41:00.372Z,-1.89
2023-01-29T12:43:48.605Z,-1.91
2023-01-29T12:46:26.144Z,-1.90
2023-01-29T12:48:54.034Z,-1.87
2023-01-29T12:51:26.246Z,-1.86
2023-01-29T12:54:02.826Z,-1.89
2023-01-29T12:56:40.795Z,-1.91
2023-01-29T12:59:30.342Z,-1.94
2023-01-29T13:02:19.152Z,-1.97
2023-01-29T13:04:57.711Z,-1.99
2023-01-29T13:07:33.296Z,-2.01
2023-01-29T13:10:09.182Z,-2.01
2023-01-29T13:12:39.064Z,-2.00
2023-01-29T13:15:15.476Z,-2.00
2023-01-29T13:17:44.292Z,-2.01
2023-01-29T13:20:32.018Z,-2.01
2023-01-29T13:23:06.087Z,-2.02
2023-01-29T13:25:33.310Z,-2.02
2023-01-29T13:28:01.026Z,-2.02
2023-01-29T16:20:00.605Z,-2.96
2023-01-29T16:22:35.877Z,-2.90
2023-01-29T16:25:04.523Z,-2.84
2023-01-29T16:27:32.463Z,-2.80
2023-01-29T16:30:01.673Z,-2.75
2023-01-29T16:32:29.568Z,-2.71
2023-01-29T16:34:59.235Z,-2.68
2023-01-29T16:37:28.516Z,-2.65
2023-01-29T16:39:55.916Z,-2.63
2023-01-29T16:42:30.114Z,-2.63
2023-01-29T16:45:01.709Z,-2.63
2023-01-29T16:47:38.628Z,-2.63
2023-01-29T16:50:36.166Z,-2.63
2023-01-29T16:53:31.347Z,-2.64
2023-01-29T16:56:05.379Z,-2.64
2023-01-29T16:58:32.393Z,-2.65
2023-01-29T17:01:08.857Z,-2.68
2023-01-29T17:03:36.629Z,-2.71
2023-01-29T17:06:18.696Z,-2.73
2023-01-29T17:08:45.753Z,-2.75
2023-01-29T17:11:13.818Z,-2.75
2023-01-29T17:13:42.484Z,-2.77
2023-01-29T17:16:25.672Z,-2.79
2023-01-29T17:18:53.184Z,-2.82
2023-01-29T17:21:20.048Z,-2.83
2023-01-29T17:23:47.415Z,-2.85
2023-01-29T17:26:14.495Z,-2.88
2023-01-29T17:28:41.577Z,-2.91
2023-01-29T17:31:08.604Z,-2.95
2023-01-29T17:33:36.986Z,-2.99
2023-01-29T17:36:04.013Z,-3.01
2023-01-29T17:38:31.977Z,-3.03
2023-01-29T17:41:21.401Z,-3.04
2023-01-29T17:43:48.255Z,-3.07
2023-01-29T17:46:16.296Z,-3.09
2023-01-29T17:48:43.721Z,-3.10
2023-01-29T17:51:14.892Z,-3.13
2023-01-29T17:53:45.997Z,-3.14
2023-01-29T17:56:17.416Z,-3.16
2023-01-29T17:58:46.649Z,-3.17
2023-01-29T18:01:14.999Z,-3.19
2023-01-29T18:03:50.203Z,-3.20
2023-01-29T18:06:29.096Z,-3.22
2023-01-29T18:08:57.377Z,-3.24
2023-01-29T18:11:25.646Z,-3.27
2023-01-29T18:13:55.303Z,-3.30
2023-01-29T18:16:24.219Z,-3.33
2023-01-29T18:18:52.651Z,-3.36
2023-01-29T18:21:22.937Z,-3.39
2023-01-29T18:23:52.274Z,-3.41
2023-01-29T18:26:20.640Z,-3.42
2023-01-29T18:28:50.123Z,-3.43
2023-01-29T18:31:19.976Z,-3.46
2023-01-29T18:33:51.430Z,-3.47
2023-01-29T18:36:22.480Z,-3.48
2023-01-29T18:38:51.722Z,-3.50
2023-01-29T18:41:22.509Z,-3.52
2023-01-29T18:43:53.185Z,-3.54
2023-01-29T18:46:24.461Z,-3.55
2023-01-29T18:48:55.705Z,-3.56
2023-01-29T18:51:24.523Z,-3.57
2023-01-29T18:53:52.992Z,-3.57
2023-01-29T18:56:21.408Z,-3.58
2023-01-29T18:58:55.909Z,-3.59
2023-01-29T19:01:24.540Z,-3.58
2023-01-29T19:03:53.095Z,-3.58
2023-01-29T19:06:23.197Z,-3.57
2023-01-29T19:08:52.640Z,-3.57
2023-01-29T19:11:23.339Z,-3.57
2023-01-29T19:13:52.164Z,-3.59
2023-01-29T19:16:20.948Z,-3.60
2023-01-29T19:18:49.649Z,-3.61
2023-01-29T19:21:18.219Z,-3.61
2023-01-29T19:23:47.737Z,-3.63
2023-01-29T19:26:16.181Z,-3.64
2023-01-29T19:28:44.914Z,-3.64
2023-01-29T19:31:13.939Z,-3.65
2023-01-29T19:33:43.972Z,-3.65
2023-01-29T19:36:13.826Z,-3.65
2023-01-29T19:38:43.479Z,-3.67
2023-01-29T19:41:12.055Z,-3.67
2023-01-29T19:43:42.297Z,-3.68
2023-01-29T19:46:10.895Z,-3.67
2023-01-29T19:48:39.436Z,-3.67
2023-01-29T19:51:10.091Z,-3.67
2023-01-29T19:53:44.454Z,-3.68
2023-01-29T19:56:15.557Z,-3.69
2023-01-29T19:58:44.021Z,-3.71
2023-01-29T20:01:20.469Z,-3.71
2023-01-29T20:03:49.814Z,-3.72
2023-01-29T20:06:20.515Z,-3.73
2023-01-29T20:08:49.210Z,-3.74
2023-01-29T20:11:19.838Z,-3.74
2023-01-29T20:13:49.953Z,-3.74
2023-01-29T20:16:18.738Z,-3.74
2023-01-29T20:18:49.933Z,-3.75
2023-01-29T20:21:22.470Z,-3.76
2023-01-29T20:23:54.087Z,-3.77
2023-01-29T20:26:22.976Z,-3.78
2023-01-29T20:28:51.625Z,-3.78
2023-01-29T20:31:19.933Z,-3.79
2023-01-29T20:33:48.816Z,-3.80
2023-01-29T20:36:17.725Z,-3.81
2023-01-29T20:38:48.195Z,-3.81
2023-01-29T20:41:17.198Z,-3.81
2023-01-29T20:43:47.507Z,-3.81
2023-01-29T20:46:15.756Z,-3.82
2023-01-29T20:48:44.420Z,-3.82
2023-01-29T20:51:16.296Z,-3.82
2023-01-29T20:53:45.937Z,-3.82
2023-01-29T20:56:16.608Z,-3.82
2023-01-29T20:58:47.030Z,-3.81
2023-01-29T21:01:19.420Z,-3.81
2023-01-29T21:03:47.993Z,-3.82
2023-01-29T21:06:16.551Z,-3.82
2023-01-29T21:08:45.028Z,-3.83
2023-01-29T21:11:14.168Z,-3.83
2023-01-29T21:13:44.256Z,-3.83
2023-01-29T21:16:13.466Z,-3.84
2023-01-29T21:18:41.946Z,-3.84
2023-01-29T21:21:11.033Z,-3.84
2023-01-29T21:23:39.323Z,-3.85
2023-01-29T21:26:08.067Z,-3.85
2023-01-29T21:28:36.684Z,-3.87
2023-01-29T21:31:09.483Z,-3.86
2023-01-29T21:33:38.039Z,-3.88
2023-01-29T21:36:07.761Z,-3.88
2023-01-29T21:38:36.490Z,-3.90
2023-01-29T21:41:07.338Z,-3.91
2023-01-29T21:43:36.285Z,-3.92
2023-01-29T21:46:16.325Z,-3.92
2023-01-29T21:48:44.880Z,-3.92
2023-01-29T21:51:13.506Z,-3.94
2023-01-29T21:53:41.804Z,-3.95
2023-01-29T21:56:10.042Z,-3.96
2023-01-29T21:58:38.740Z,-3.97
2023-01-29T22:01:37.746Z,-3.98
2023-01-29T22:04:08.826Z,-3.98
2023-01-29T22:06:37.181Z,-3.98
2023-01-29T22:09:07.709Z,-4.00
2023-01-29T22:11:36.375Z,-4.01
2023-01-29T22:14:05.362Z,-4.02
2023-01-29T22:16:33.697Z,-4.02
2023-01-29T22:19:02.200Z,-4.03
2023-01-29T22:21:30.747Z,-4.04
2023-01-29T22:23:59.444Z,-4.04
2023-01-29T22:26:27.729Z,-4.04
2023-01-29T22:28:56.380Z,-4.05
2023-01-29T22:31:24.816Z,-4.05
2023-01-29T22:33:53.647Z,-4.05
2023-01-29T22:36:21.960Z,-4.04
2023-01-29T22:38:50.183Z,-4.06
2023-01-29T22:41:18.535Z,-4.06
2023-01-29T22:43:46.927Z,-4.08
2023-01-29T22:46:15.129Z,-4.09
2023-01-29T22:48:45.263Z,-4.10
2023-01-29T22:51:14.160Z,-4.09
2023-01-29T22:53:44.390Z,-4.09
2023-01-29T22:56:13.139Z,-4.10
2023-01-29T22:58:41.544Z,-4.10
2023-01-29T23:01:09.799Z,-4.11
2023-01-29T23:03:38.070Z,-4.11
2023-01-29T23:06:07.052Z,-4.11
2023-01-29T23:08:35.787Z,-4.12
2023-01-29T23:11:18.070Z,-4.13
2023-01-29T23:13:50.310Z,-4.14
2023-01-29T23:16:19.361Z,-4.16
2023-01-29T23:18:50.243Z,-4.18
2023-01-29T23:21:18.932Z,-4.20
2023-01-29T23:23:47.616Z,-4.21
2023-01-29T23:26:35.089Z,-4.21
2023-01-29T23:29:04.153Z,-4.22
2023-01-29T23:31:32.645Z,-4.22
2023-01-29T23:34:01.453Z,-4.23
2023-01-29T23:36:30.513Z,-4.24
2023-01-29T23:38:58.702Z,-4.25
2023-01-29T23:41:27.198Z,-4.25
2023-01-29T23:43:56.013Z,-4.27
2023-01-29T23:46:24.937Z,-4.29
2023-01-29T23:48:53.212Z,-4.32
2023-01-29T23:51:21.687Z,-4.35
2023-01-29T23:53:49.883Z,-4.38
2023-01-29T23:56:18.239Z,-4.40
2023-01-29T23:58:47.726Z,-4.41
